sensor_id;sensor_type;location;lat;lon;timestamp;pressure;altitude;pressure_sealevel;temperature;humidity
76732;BME280;65656;51.130;13.658;2024-01-07T00:03:07;98984.53;;;-2.21;100.00
76732;BME280;65656;51.130;13.658;2024-01-07T00:07:09;98984.06;;;-2.25;100.00
76732;BME280;65656;51.130;13.658;2024-01-07T00:11:11;98982.72;;;-2.29;100.00
76732;BME280;65656;51.130;13.658;2024-01-07T00:15:15;98998.88;;;-2.37;100.00
76732;BME280;65656;51.130;13.658;2024-01-07T00:19:16;98997.28;;;-2.23;100.00
76732;BME280;65656;51.130;13.658;2024-01-07T00:23:19;98989.47;;;-2.33;100.00
76732;BME280;65656;51.130;13.658;2024-01-07T00:27:20;99003.94;;;-2.42;100.00
76732;BME280;65656;51.130;13.658;2024-01-07T00:31:23;99010.63;;;-2.38;100.00
76732;BME280;65656;51.130;13.658;2024-01-07T00:35:25;99010.13;;;-2.33;100.00
76732;BME280;65656;51.130;13.658;2024-01-07T00:39:27;99011.84;;;-2.40;100.00
76732;BME280;65656;51.130;13.658;2024-01-07T00:43:29;99013.69;;;-2.41;100.00
76732;BME280;65656;51.130;13.658;2024-01-07T00:47:32;99009.94;;;-2.32;100.00
76732;BME280;65656;51.130;13.658;2024-01-07T00:51:34;99024.34;;;-2.33;100.00
76732;BME280;65656;51.130;13.658;2024-01-07T00:55:36;99020.53;;;-2.38;100.00
76732;BME280;65656;51.130;13.658;2024-01-07T00:59:38;99026.38;;;-2.35;100.00
76732;BME280;65656;51.130;13.658;2024-01-07T01:03:42;99030.06;;;-2.36;100.00
76732;BME280;65656;51.130;13.658;2024-01-07T01:07:44;99036.25;;;-2.35;100.00
76732;BME280;65656;51.130;13.658;2024-01-07T01:11:46;99039.97;;;-2.13;100.00
76732;BME280;65656;51.130;13.658;2024-01-07T01:15:48;99046.28;;;-2.29;100.00
76732;BME280;65656;51.130;13.658;2024-01-07T01:19:52;99047.81;;;-2.35;100.00
76732;BME280;65656;51.130;13.658;2024-01-07T01:23:54;99043.78;;;-2.31;100.00
76732;BME280;65656;51.130;13.658;2024-01-07T01:27:56;99049.50;;;-2.34;100.00
76732;BME280;65656;51.130;13.658;2024-01-07T01:31:58;99052.50;;;-2.29;100.00
76732;BME280;65656;51.130;13.658;2024-01-07T01:36:06;99056.97;;;-2.52;100.00
76732;BME280;65656;51.130;13.658;2024-01-07T01:40:09;99053.91;;;-2.41;100.00
76732;BME280;65656;51.130;13.658;2024-01-07T01:44:11;99057.69;;;-2.58;100.00
76732;BME280;65656;51.130;13.658;2024-01-07T01:48:14;99059.06;;;-2.62;100.00
76732;BME280;65656;51.130;13.658;2024-01-07T01:52:18;99065.06;;;-2.60;100.00
76732;BME280;65656;51.130;13.658;2024-01-07T01:56:20;99058.97;;;-2.46;100.00
76732;BME280;65656;51.130;13.658;2024-01-07T02:00:22;99063.53;;;-2.55;100.00
76732;BME280;65656;51.130;13.658;2024-01-07T02:04:23;99070.06;;;-2.49;100.00
76732;BME280;65656;51.130;13.658;2024-01-07T02:08:26;99073.44;;;-2.55;100.00
76732;BME280;65656;51.130;13.658;2024-01-07T02:12:28;99078.81;;;-2.55;100.00
76732;BME280;65656;51.130;13.658;2024-01-07T02:16:30;99084.50;;;-2.58;100.00
76732;BME280;65656;51.130;13.658;2024-01-07T02:20:31;99089.06;;;-2.67;100.00
76732;BME280;65656;51.130;13.658;2024-01-07T02:24:35;99092.50;;;-2.50;100.00
76732;BME280;65656;51.130;13.658;2024-01-07T02:28:36;99095.59;;;-2.61;100.00
76732;BME280;65656;51.130;13.658;2024-01-07T02:32:38;99098.88;;;-2.51;100.00
76732;BME280;65656;51.130;13.658;2024-01-07T02:36:39;99097.94;;;-2.66;100.00
76732;BME280;65656;51.130;13.658;2024-01-07T02:40:42;99105.25;;;-2.52;100.00
76732;BME280;65656;51.130;13.658;2024-01-07T02:44:45;99110.50;;;-2.67;100.00
76732;BME280;65656;51.130;13.658;2024-01-07T02:48:47;99117.03;;;-2.61;100.00
76732;BME280;65656;51.130;13.658;2024-01-07T02:52:48;99110.22;;;-2.72;100.00
76732;BME280;65656;51.130;13.658;2024-01-07T02:56:51;99125.88;;;-2.53;100.00
76732;BME280;65656;51.130;13.658;2024-01-07T03:00:53;99123.78;;;-2.73;100.00
76732;BME280;65656;51.130;13.658;2024-01-07T03:04:55;99125.44;;;-2.72;100.00
76732;BME280;65656;51.130;13.658;2024-01-07T03:08:57;99116.75;;;-2.74;100.00
76732;BME280;65656;51.130;13.658;2024-01-07T03:13:00;99122.25;;;-2.68;100.00
76732;BME280;65656;51.130;13.658;2024-01-07T03:17:02;99122.09;;;-2.74;100.00
76732;BME280;65656;51.130;13.658;2024-01-07T03:21:04;99122.47;;;-2.77;100.00
76732;BME280;65656;51.130;13.658;2024-01-07T03:25:07;99127.47;;;-2.74;100.00
76732;BME280;65656;51.130;13.658;2024-01-07T03:29:10;99129.31;;;-2.75;100.00
76732;BME280;65656;51.130;13.658;2024-01-07T03:33:11;99125.13;;;-2.77;100.00
76732;BME280;65656;51.130;13.658;2024-01-07T03:37:14;99129.13;;;-2.73;100.00
76732;BME280;65656;51.130;13.658;2024-01-07T03:41:16;99132.00;;;-2.75;100.00
76732;BME280;65656;51.130;13.658;2024-01-07T03:45:19;99131.50;;;-2.78;100.00
76732;BME280;65656;51.130;13.658;2024-01-07T03:49:20;99130.84;;;-2.89;100.00
76732;BME280;65656;51.130;13.658;2024-01-07T03:53:22;99138.88;;;-2.81;100.00
76732;BME280;65656;51.130;13.658;2024-01-07T03:57:24;99145.94;;;-2.79;100.00
76732;BME280;65656;51.130;13.658;2024-01-07T04:01:27;99143.94;;;-2.94;100.00
76732;BME280;65656;51.130;13.658;2024-01-07T04:05:28;99150.97;;;-2.93;100.00
76732;BME280;65656;51.130;13.658;2024-01-07T04:09:30;99152.28;;;-2.89;100.00
76732;BME280;65656;51.130;13.658;2024-01-07T04:13:32;99163.03;;;-2.89;100.00
76732;BME280;65656;51.130;13.658;2024-01-07T04:17:35;99160.03;;;-2.94;100.00
76732;BME280;65656;51.130;13.658;2024-01-07T04:21:36;99166.22;;;-2.93;100.00
76732;BME280;65656;51.130;13.658;2024-01-07T04:25:38;99166.41;;;-3.03;100.00
76732;BME280;65656;51.130;13.658;2024-01-07T04:29:39;99162.38;;;-2.99;100.00
76732;BME280;65656;51.130;13.658;2024-01-07T04:33:42;99168.94;;;-3.01;100.00
76732;BME280;65656;51.130;13.658;2024-01-07T04:37:44;99169.75;;;-3.01;100.00
76732;BME280;65656;51.130;13.658;2024-01-07T04:41:46;99181.66;;;-3.03;100.00
76732;BME280;65656;51.130;13.658;2024-01-07T04:45:47;99183.81;;;-3.07;100.00
76732;BME280;65656;51.130;13.658;2024-01-07T04:49:50;99177.47;;;-3.06;100.00
76732;BME280;65656;51.130;13.658;2024-01-07T04:53:52;99194.19;;;-2.96;100.00
76732;BME280;65656;51.130;13.658;2024-01-07T04:57:54;99193.72;;;-2.99;100.00
76732;BME280;65656;51.130;13.658;2024-01-07T05:01:56;99195.88;;;-2.95;100.00
76732;BME280;65656;51.130;13.658;2024-01-07T05:05:59;99204.91;;;-3.12;100.00
76732;BME280;65656;51.130;13.658;2024-01-07T05:10:01;99209.97;;;-3.09;100.00
76732;BME280;65656;51.130;13.658;2024-01-07T05:14:03;99207.59;;;-3.12;100.00
76732;BME280;65656;51.130;13.658;2024-01-07T05:18:07;99211.13;;;-3.12;100.00
76732;BME280;65656;51.130;13.658;2024-01-07T05:22:10;99208.44;;;-3.20;100.00
76732;BME280;65656;51.130;13.658;2024-01-07T05:26:12;99219.34;;;-3.13;100.00
76732;BME280;65656;51.130;13.658;2024-01-07T05:30:13;99216.66;;;-3.21;100.00
76732;BME280;65656;51.130;13.658;2024-01-07T05:34:15;99222.84;;;-3.21;100.00
76732;BME280;65656;51.130;13.658;2024-01-07T05:38:18;99224.69;;;-3.29;100.00
76732;BME280;65656;51.130;13.658;2024-01-07T05:42:20;99228.03;;;-3.36;100.00
76732;BME280;65656;51.130;13.658;2024-01-07T05:46:21;99241.41;;;-3.36;100.00
76732;BME280;65656;51.130;13.658;2024-01-07T05:50:23;99238.41;;;-3.41;100.00
76732;BME280;65656;51.130;13.658;2024-01-07T05:54:26;99248.78;;;-3.46;100.00
76732;BME280;65656;51.130;13.658;2024-01-07T05:58:31;99244.78;;;-3.42;100.00
76732;BME280;65656;51.130;13.658;2024-01-07T06:02:34;99247.47;;;-3.42;100.00
76732;BME280;65656;51.130;13.658;2024-01-07T06:06:35;99253.13;;;-3.45;100.00
76732;BME280;65656;51.130;13.658;2024-01-07T06:10:39;99263.00;;;-3.45;100.00
76732;BME280;65656;51.130;13.658;2024-01-07T06:14:40;99275.53;;;-3.54;100.00
76732;BME280;65656;51.130;13.658;2024-01-07T06:18:42;99278.41;;;-3.55;100.00
76732;BME280;65656;51.130;13.658;2024-01-07T06:22:44;99275.34;;;-3.60;100.00
76732;BME280;65656;51.130;13.658;2024-01-07T06:26:46;99286.94;;;-3.44;100.00
76732;BME280;65656;51.130;13.658;2024-01-07T06:30:48;99292.63;;;-3.47;100.00
76732;BME280;65656;51.130;13.658;2024-01-07T06:34:50;99290.56;;;-3.69;100.00
76732;BME280;65656;51.130;13.658;2024-01-07T06:38:51;99307.63;;;-3.70;100.00
76732;BME280;65656;51.130;13.658;2024-01-07T06:42:54;99308.97;;;-3.66;100.00
76732;BME280;65656;51.130;13.658;2024-01-07T06:46:56;99312.31;;;-3.72;100.00
76732;BME280;65656;51.130;13.658;2024-01-07T06:50:58;99323.69;;;-3.70;100.00
76732;BME280;65656;51.130;13.658;2024-01-07T06:55:00;99327.03;;;-3.68;100.00
76732;BME280;65656;51.130;13.658;2024-01-07T06:59:02;99327.69;;;-3.74;100.00
76732;BME280;65656;51.130;13.658;2024-01-07T07:03:04;99328.72;;;-3.67;100.00
76732;BME280;65656;51.130;13.658;2024-01-07T07:07:06;99334.41;;;-3.70;100.00
76732;BME280;65656;51.130;13.658;2024-01-07T07:11:07;99339.38;;;-3.75;100.00
76732;BME280;65656;51.130;13.658;2024-01-07T07:15:10;99344.31;;;-3.62;100.00
76732;BME280;65656;51.130;13.658;2024-01-07T07:19:12;99350.81;;;-3.73;100.00
76732;BME280;65656;51.130;13.658;2024-01-07T07:23:13;99349.81;;;-3.64;100.00
76732;BME280;65656;51.130;13.658;2024-01-07T07:27:15;99354.47;;;-3.66;100.00
76732;BME280;65656;51.130;13.658;2024-01-07T07:31:18;99357.53;;;-3.61;100.00
76732;BME280;65656;51.130;13.658;2024-01-07T07:35:20;99375.56;;;-3.71;100.00
76732;BME280;65656;51.130;13.658;2024-01-07T07:39:21;99384.50;;;-3.88;100.00
76732;BME280;65656;51.130;13.658;2024-01-07T07:43:23;99381.59;;;-3.69;100.00
76732;BME280;65656;51.130;13.658;2024-01-07T07:47:26;99390.25;;;-3.75;100.00
76732;BME280;65656;51.130;13.658;2024-01-07T07:51:27;99390.59;;;-3.78;100.00
76732;BME280;65656;51.130;13.658;2024-01-07T07:55:29;99393.63;;;-3.73;100.00
76732;BME280;65656;51.130;13.658;2024-01-07T07:59:31;99398.16;;;-4.00;100.00
76732;BME280;65656;51.130;13.658;2024-01-07T08:03:33;99409.19;;;-4.03;100.00
76732;BME280;65656;51.130;13.658;2024-01-07T08:07:35;99404.22;;;-3.89;100.00
76732;BME280;65656;51.130;13.658;2024-01-07T08:11:37;99412.53;;;-4.01;100.00
76732;BME280;65656;51.130;13.658;2024-01-07T08:15:41;99418.31;;;-3.87;100.00
76732;BME280;65656;51.130;13.658;2024-01-07T08:19:46;99421.84;;;-4.05;100.00
76732;BME280;65656;51.130;13.658;2024-01-07T08:23:48;99446.31;;;-4.00;100.00
76732;BME280;65656;51.130;13.658;2024-01-07T08:27:49;99443.06;;;-3.85;100.00
76732;BME280;65656;51.130;13.658;2024-01-07T08:31:53;99446.03;;;-3.97;100.00
76732;BME280;65656;51.130;13.658;2024-01-07T08:35:56;99440.97;;;-4.00;100.00
76732;BME280;65656;51.130;13.658;2024-01-07T08:39:58;99445.81;;;-4.03;100.00
76732;BME280;65656;51.130;13.658;2024-01-07T08:43:59;99447.06;;;-3.89;100.00
76732;BME280;65656;51.130;13.658;2024-01-07T08:48:01;99459.47;;;-3.88;100.00
76732;BME280;65656;51.130;13.658;2024-01-07T08:52:05;99459.13;;;-3.85;100.00
76732;BME280;65656;51.130;13.658;2024-01-07T08:56:06;99458.41;;;-3.96;100.00
76732;BME280;65656;51.130;13.658;2024-01-07T09:00:09;99467.13;;;-3.94;100.00
76732;BME280;65656;51.130;13.658;2024-01-07T09:04:10;99464.00;;;-4.07;100.00
76732;BME280;65656;51.130;13.658;2024-01-07T09:08:13;99474.09;;;-4.01;100.00
76732;BME280;65656;51.130;13.658;2024-01-07T09:12:15;99469.34;;;-3.89;100.00
76732;BME280;65656;51.130;13.658;2024-01-07T09:16:16;99472.69;;;-3.87;100.00
76732;BME280;65656;51.130;13.658;2024-01-07T09:20:18;99479.59;;;-3.76;100.00
76732;BME280;65656;51.130;13.658;2024-01-07T09:24:21;99468.28;;;-3.70;100.00
76732;BME280;65656;51.130;13.658;2024-01-07T09:28:23;99487.25;;;-3.81;100.00
76732;BME280;65656;51.130;13.658;2024-01-07T09:32:25;99488.63;;;-3.77;99.68
76732;BME280;65656;51.130;13.658;2024-01-07T09:36:26;99491.38;;;-3.69;100.00
76732;BME280;65656;51.130;13.658;2024-01-07T09:40:32;99489.69;;;-3.70;100.00
76732;BME280;65656;51.130;13.658;2024-01-07T09:44:34;99500.91;;;-3.93;100.00
76732;BME280;65656;51.130;13.658;2024-01-07T09:48:35;99503.59;;;-3.93;100.00
76732;BME280;65656;51.130;13.658;2024-01-07T09:52:38;99499.94;;;-4.09;100.00
76732;BME280;65656;51.130;13.658;2024-01-07T09:56:45;99498.78;;;-4.07;100.00
76732;BME280;65656;51.130;13.658;2024-01-07T10:00:51;99509.47;;;-4.07;100.00
76732;BME280;65656;51.130;13.658;2024-01-07T10:04:53;99502.44;;;-4.08;100.00
76732;BME280;65656;51.130;13.658;2024-01-07T10:08:55;99512.41;;;-4.18;100.00
76732;BME280;65656;51.130;13.658;2024-01-07T10:12:58;99505.06;;;-4.16;100.00
76732;BME280;65656;51.130;13.658;2024-01-07T10:16:59;99504.59;;;-4.29;98.60
76732;BME280;65656;51.130;13.658;2024-01-07T10:21:02;99510.72;;;-4.19;99.36
76732;BME280;65656;51.130;13.658;2024-01-07T10:25:04;99514.69;;;-4.23;99.13
76732;BME280;65656;51.130;13.658;2024-01-07T10:29:07;99518.81;;;-4.29;98.23
76732;BME280;65656;51.130;13.658;2024-01-07T10:33:09;99516.22;;;-4.38;99.25
76732;BME280;65656;51.130;13.658;2024-01-07T10:37:11;99531.34;;;-4.29;100.00
76732;BME280;65656;51.130;13.658;2024-01-07T10:41:14;99529.81;;;-4.14;99.82
76732;BME280;65656;51.130;13.658;2024-01-07T10:45:19;99539.38;;;-4.29;96.72
76732;BME280;65656;51.130;13.658;2024-01-07T10:49:21;99535.72;;;-4.10;98.04
76732;BME280;65656;51.130;13.658;2024-01-07T10:53:25;99530.59;;;-4.39;94.63
76732;BME280;65656;51.130;13.658;2024-01-07T10:57:34;99534.66;;;-4.35;94.90
76732;BME280;65656;51.130;13.658;2024-01-07T11:01:37;99531.19;;;-4.45;93.99
76732;BME280;65656;51.130;13.658;2024-01-07T11:05:44;99535.19;;;-4.50;92.64
76732;BME280;65656;51.130;13.658;2024-01-07T11:10:00;99532.09;;;-4.55;91.77
76732;BME280;65656;51.130;13.658;2024-01-07T11:14:03;99532.59;;;-4.41;92.61
76732;BME280;65656;51.130;13.658;2024-01-07T11:18:06;99549.00;;;-4.36;93.40
76732;BME280;65656;51.130;13.658;2024-01-07T11:22:24;99541.81;;;-4.54;90.70
76732;BME280;65656;51.130;13.658;2024-01-07T11:26:28;99536.84;;;-4.49;92.97
76732;BME280;65656;51.130;13.658;2024-01-07T11:30:38;99547.56;;;-4.49;93.24
76732;BME280;65656;51.130;13.658;2024-01-07T11:34:42;99540.81;;;-4.53;93.96
76732;BME280;65656;51.130;13.658;2024-01-07T11:38:45;99544.84;;;-4.66;92.91
76732;BME280;65656;51.130;13.658;2024-01-07T11:42:54;99550.66;;;-4.53;94.03
76732;BME280;65656;51.130;13.658;2024-01-07T11:46:56;99554.09;;;-4.61;93.35
76732;BME280;65656;51.130;13.658;2024-01-07T11:50:59;99546.38;;;-4.64;93.24
76732;BME280;65656;51.130;13.658;2024-01-07T11:55:00;99543.56;;;-4.44;93.55
76732;BME280;65656;51.130;13.658;2024-01-07T11:59:02;99547.72;;;-4.32;92.36
76732;BME280;65656;51.130;13.658;2024-01-07T12:03:04;99548.94;;;-4.27;92.08
76732;BME280;65656;51.130;13.658;2024-01-07T12:07:07;99555.38;;;-4.02;92.71
76732;BME280;65656;51.130;13.658;2024-01-07T12:11:11;99562.72;;;-4.04;91.85
76732;BME280;65656;51.130;13.658;2024-01-07T12:15:13;99561.94;;;-4.14;91.44
76732;BME280;65656;51.130;13.658;2024-01-07T12:19:22;99568.66;;;-4.10;91.22
76732;BME280;65656;51.130;13.658;2024-01-07T12:23:26;99561.63;;;-4.11;91.20
76732;BME280;65656;51.130;13.658;2024-01-07T12:27:28;99559.41;;;-3.80;94.38
76732;BME280;65656;51.130;13.658;2024-01-07T12:31:32;99578.13;;;-3.98;92.83
76732;BME280;65656;51.130;13.658;2024-01-07T12:35:34;99569.19;;;-4.06;93.05
76732;BME280;65656;51.130;13.658;2024-01-07T12:39:38;99574.50;;;-3.97;93.53
76732;BME280;65656;51.130;13.658;2024-01-07T12:43:39;99585.63;;;-3.83;95.26
76732;BME280;65656;51.130;13.658;2024-01-07T12:47:41;99588.09;;;-4.08;95.32
76732;BME280;65656;51.130;13.658;2024-01-07T12:51:43;99587.84;;;-4.14;93.88
76732;BME280;65656;51.130;13.658;2024-01-07T12:55:46;99594.59;;;-3.93;94.85
76732;BME280;65656;51.130;13.658;2024-01-07T12:59:48;99597.88;;;-3.99;94.43
76732;BME280;65656;51.130;13.658;2024-01-07T13:03:49;99593.81;;;-4.03;94.83
76732;BME280;65656;51.130;13.658;2024-01-07T13:07:51;99604.38;;;-4.01;93.90
76732;BME280;65656;51.130;13.658;2024-01-07T13:11:54;99601.00;;;-4.03;93.24
76732;BME280;65656;51.130;13.658;2024-01-07T13:15:56;99617.59;;;-4.00;94.49
76732;BME280;65656;51.130;13.658;2024-01-07T13:19:58;99608.88;;;-4.02;93.88
76732;BME280;65656;51.130;13.658;2024-01-07T13:24:00;99612.94;;;-3.98;93.83
76732;BME280;65656;51.130;13.658;2024-01-07T13:28:05;99600.91;;;-3.58;94.25
76732;BME280;65656;51.130;13.658;2024-01-07T13:32:09;99610.31;;;-3.89;92.05
76732;BME280;65656;51.130;13.658;2024-01-07T13:36:10;99616.44;;;-3.61;90.83
76732;BME280;65656;51.130;13.658;2024-01-07T13:40:12;99616.16;;;-3.76;89.84
76732;BME280;65656;51.130;13.658;2024-01-07T13:44:15;99620.06;;;-3.71;89.71
76732;BME280;65656;51.130;13.658;2024-01-07T13:48:16;99630.59;;;-3.69;90.76
76732;BME280;65656;51.130;13.658;2024-01-07T13:52:18;99630.59;;;-3.69;91.43
76732;BME280;65656;51.130;13.658;2024-01-07T13:56:20;99643.31;;;-3.71;92.45
76732;BME280;65656;51.130;13.658;2024-01-07T14:00:23;99633.97;;;-3.85;90.68
76732;BME280;65656;51.130;13.658;2024-01-07T14:04:25;99633.22;;;-3.77;91.30
76732;BME280;65656;51.130;13.658;2024-01-07T14:08:26;99637.03;;;-3.62;92.69
76732;BME280;65656;51.130;13.658;2024-01-07T14:12:28;99648.13;;;-3.75;93.70
76732;BME280;65656;51.130;13.658;2024-01-07T14:16:31;99642.31;;;-3.88;92.22
76732;BME280;65656;51.130;13.658;2024-01-07T14:20:32;99659.59;;;-3.82;93.22
76732;BME280;65656;51.130;13.658;2024-01-07T14:28:45;99655.38;;;-3.67;94.81
76732;BME280;65656;51.130;13.658;2024-01-07T14:32:50;99661.97;;;-3.79;93.59
76732;BME280;65656;51.130;13.658;2024-01-07T14:36:52;99651.56;;;-3.82;91.91
76732;BME280;65656;51.130;13.658;2024-01-07T14:40:54;99654.31;;;-3.92;93.69
76732;BME280;65656;51.130;13.658;2024-01-07T14:44:55;99654.47;;;-3.94;93.87
76732;BME280;65656;51.130;13.658;2024-01-07T14:48:58;99663.50;;;-3.95;94.93
76732;BME280;65656;51.130;13.658;2024-01-07T14:53:00;99663.66;;;-3.96;93.79
76732;BME280;65656;51.130;13.658;2024-01-07T14:57:02;99669.22;;;-3.89;96.03
76732;BME280;65656;51.130;13.658;2024-01-07T15:01:03;99672.22;;;-3.93;94.44
76732;BME280;65656;51.130;13.658;2024-01-07T15:05:08;99671.69;;;-3.96;95.75
76732;BME280;65656;51.130;13.658;2024-01-07T15:09:10;99677.78;;;-4.04;94.11
76732;BME280;65656;51.130;13.658;2024-01-07T15:13:12;99682.91;;;-3.93;96.52
76732;BME280;65656;51.130;13.658;2024-01-07T15:17:21;99681.53;;;-3.97;95.66
76732;BME280;65656;51.130;13.658;2024-01-07T15:21:23;99672.22;;;-3.93;97.50
76732;BME280;65656;51.130;13.658;2024-01-07T15:25:25;99669.53;;;-3.93;95.65
76732;BME280;65656;51.130;13.658;2024-01-07T15:29:27;99672.53;;;-3.96;96.88
76732;BME280;65656;51.130;13.658;2024-01-07T15:33:28;99679.00;;;-3.98;97.12
76732;BME280;65656;51.130;13.658;2024-01-07T15:37:32;99674.78;;;-4.01;95.47
76732;BME280;65656;51.130;13.658;2024-01-07T15:41:34;99688.84;;;-3.99;97.16
76732;BME280;65656;51.130;13.658;2024-01-07T15:45:36;99690.72;;;-3.81;97.80
76732;BME280;65656;51.130;13.658;2024-01-07T15:49:37;99692.72;;;-3.83;97.13
76732;BME280;65656;51.130;13.658;2024-01-07T15:53:40;99695.00;;;-3.88;95.90
76732;BME280;65656;51.130;13.658;2024-01-07T15:57:42;99698.81;;;-3.91;97.35
76732;BME280;65656;51.130;13.658;2024-01-07T16:01:46;99712.34;;;-3.93;97.61
76732;BME280;65656;51.130;13.658;2024-01-07T16:05:47;99713.34;;;-3.94;96.79
76732;BME280;65656;51.130;13.658;2024-01-07T16:09:50;99719.38;;;-3.92;95.69
76732;BME280;65656;51.130;13.658;2024-01-07T16:13:52;99717.72;;;-3.93;93.61
76732;BME280;65656;51.130;13.658;2024-01-07T16:17:53;99718.38;;;-3.90;93.48
76732;BME280;65656;51.130;13.658;2024-01-07T16:21:56;99726.81;;;-3.85;96.60
76732;BME280;65656;51.130;13.658;2024-01-07T16:25:59;99739.13;;;-3.93;96.16
76732;BME280;65656;51.130;13.658;2024-01-07T16:30:01;99735.25;;;-3.80;97.89
76732;BME280;65656;51.130;13.658;2024-01-07T16:34:02;99735.59;;;-3.93;96.62
76732;BME280;65656;51.130;13.658;2024-01-07T16:38:04;99743.66;;;-3.75;96.71
76732;BME280;65656;51.130;13.658;2024-01-07T16:42:07;99741.63;;;-3.91;97.16
76732;BME280;65656;51.130;13.658;2024-01-07T16:46:09;99740.44;;;-3.97;96.31
76732;BME280;65656;51.130;13.658;2024-01-07T16:50:10;99742.88;;;-3.85;96.97
76732;BME280;65656;51.130;13.658;2024-01-07T16:54:25;99746.31;;;-3.93;95.52
76732;BME280;65656;51.130;13.658;2024-01-07T16:58:28;99750.38;;;-3.89;96.63
76732;BME280;65656;51.130;13.658;2024-01-07T17:02:29;99755.28;;;-3.84;97.85
76732;BME280;65656;51.130;13.658;2024-01-07T17:06:31;99760.31;;;-3.81;96.77
76732;BME280;65656;51.130;13.658;2024-01-07T17:10:32;99755.69;;;-3.79;97.81
76732;BME280;65656;51.130;13.658;2024-01-07T17:14:35;99751.59;;;-3.83;97.24
76732;BME280;65656;51.130;13.658;2024-01-07T17:18:37;99759.63;;;-3.83;96.60
76732;BME280;65656;51.130;13.658;2024-01-07T17:22:39;99745.97;;;-3.80;98.56
76732;BME280;65656;51.130;13.658;2024-01-07T17:26:41;99747.25;;;-3.84;98.41
76732;BME280;65656;51.130;13.658;2024-01-07T17:30:44;99762.72;;;-3.78;100.00
76732;BME280;65656;51.130;13.658;2024-01-07T17:34:45;99748.72;;;-3.72;99.73
76732;BME280;65656;51.130;13.658;2024-01-07T17:38:47;99767.38;;;-3.80;99.46
76732;BME280;65656;51.130;13.658;2024-01-07T17:42:49;99762.78;;;-3.88;98.25
76732;BME280;65656;51.130;13.658;2024-01-07T17:46:52;99767.66;;;-3.83;98.80
76732;BME280;65656;51.130;13.658;2024-01-07T17:50:53;99768.22;;;-3.80;100.00
76732;BME280;65656;51.130;13.658;2024-01-07T17:54:55;99772.13;;;-3.74;99.47
76732;BME280;65656;51.130;13.658;2024-01-07T17:58:56;99769.66;;;-3.85;99.74
76732;BME280;65656;51.130;13.658;2024-01-07T18:02:59;99776.38;;;-3.81;99.75
76732;BME280;65656;51.130;13.658;2024-01-07T18:07:03;99771.44;;;-3.76;100.00
76732;BME280;65656;51.130;13.658;2024-01-07T18:11:05;99778.56;;;-3.67;100.00
76732;BME280;65656;51.130;13.658;2024-01-07T18:15:08;99778.88;;;-3.70;100.00
76732;BME280;65656;51.130;13.658;2024-01-07T18:19:11;99782.53;;;-3.71;100.00
76732;BME280;65656;51.130;13.658;2024-01-07T18:23:12;99789.03;;;-3.74;100.00
76732;BME280;65656;51.130;13.658;2024-01-07T18:27:14;99791.56;;;-3.72;100.00
76732;BME280;65656;51.130;13.658;2024-01-07T18:31:16;99794.53;;;-3.75;100.00
76732;BME280;65656;51.130;13.658;2024-01-07T18:35:20;99790.84;;;-3.74;100.00
76732;BME280;65656;51.130;13.658;2024-01-07T18:39:22;99790.94;;;-3.66;100.00
76732;BME280;65656;51.130;13.658;2024-01-07T18:43:23;99797.94;;;-3.73;100.00
76732;BME280;65656;51.130;13.658;2024-01-07T18:47:25;99798.59;;;-3.71;100.00
76732;BME280;65656;51.130;13.658;2024-01-07T18:51:28;99813.59;;;-3.78;100.00
76732;BME280;65656;51.130;13.658;2024-01-07T18:55:29;99807.63;;;-3.72;100.00
76732;BME280;65656;51.130;13.658;2024-01-07T18:59:31;99809.69;;;-3.66;100.00
76732;BME280;65656;51.130;13.658;2024-01-07T19:03:33;99823.97;;;-3.75;100.00
76732;BME280;65656;51.130;13.658;2024-01-07T19:07:36;99815.50;;;-3.71;99.86
76732;BME280;65656;51.130;13.658;2024-01-07T19:11:38;99819.84;;;-3.87;93.81
76732;BME280;65656;51.130;13.658;2024-01-07T19:15:39;99814.75;;;-3.90;94.20
76732;BME280;65656;51.130;13.658;2024-01-07T19:19:41;99820.41;;;-3.94;94.21
76732;BME280;65656;51.130;13.658;2024-01-07T19:23:44;99817.91;;;-3.95;95.28
76732;BME280;65656;51.130;13.658;2024-01-07T19:27:46;99832.13;;;-3.95;96.67
76732;BME280;65656;51.130;13.658;2024-01-07T19:40:16;99835.91;;;-3.97;96.59
76732;BME280;65656;51.130;13.658;2024-01-07T19:44:39;99841.03;;;-4.04;93.73
76732;BME280;65656;51.130;13.658;2024-01-07T19:49:02;99837.75;;;-3.98;95.05
76732;BME280;65656;51.130;13.658;2024-01-07T19:53:24;99840.72;;;-4.01;95.50
76732;BME280;65656;51.130;13.658;2024-01-07T19:57:53;99846.78;;;-3.99;96.10
76732;BME280;65656;51.130;13.658;2024-01-07T20:02:15;99846.78;;;-3.99;97.09
76732;BME280;65656;51.130;13.658;2024-01-07T20:06:37;99857.47;;;-3.99;96.23
76732;BME280;65656;51.130;13.658;2024-01-07T20:10:59;99860.00;;;-3.97;97.57
76732;BME280;65656;51.130;13.658;2024-01-07T20:15:23;99854.00;;;-4.09;96.50
76732;BME280;65656;51.130;13.658;2024-01-07T20:19:25;99863.13;;;-4.02;97.05
76732;BME280;65656;51.130;13.658;2024-01-07T20:23:27;99865.28;;;-4.15;96.98
76732;BME280;65656;51.130;13.658;2024-01-07T20:27:30;99874.41;;;-4.08;98.90
76732;BME280;65656;51.130;13.658;2024-01-07T20:31:33;99868.09;;;-4.16;98.37
76732;BME280;65656;51.130;13.658;2024-01-07T20:35:36;99873.47;;;-4.26;97.94
76732;BME280;65656;51.130;13.658;2024-01-07T20:39:37;99873.22;;;-4.33;99.75
76732;BME280;65656;51.130;13.658;2024-01-07T20:43:39;99869.84;;;-4.44;98.59
76732;BME280;65656;51.130;13.658;2024-01-07T20:47:42;99875.47;;;-4.47;98.15
76732;BME280;65656;51.130;13.658;2024-01-07T20:51:44;99874.22;;;-4.43;99.43
76732;BME280;65656;51.130;13.658;2024-01-07T20:55:46;99875.47;;;-4.47;100.00
76732;BME280;65656;51.130;13.658;2024-01-07T20:59:47;99876.50;;;-4.58;98.94
76732;BME280;65656;51.130;13.658;2024-01-07T21:03:50;99884.19;;;-4.45;100.00
76732;BME280;65656;51.130;13.658;2024-01-07T21:07:52;99879.28;;;-4.60;100.00
76732;BME280;65656;51.130;13.658;2024-01-07T21:11:54;99889.88;;;-4.58;100.00
76732;BME280;65656;51.130;13.658;2024-01-07T21:15:55;99890.13;;;-4.61;100.00